Time;durP1;ratioP1;P1;durP2;ratioP2;P2;SDS_P1;SDS_P2;PMS_P1;PMS_P2;Temp;Humidity;BMP_temperature;BMP_pressure;BME280_temperature;BME280_humidity;BME280_pressure;Samples;Min_cycle;Max_cycle;Signal;HPM_P1;HPM_P2
2023/03/24 00:01:22;;;;;;;7.35;2.92;;;10.90;99.90;;;;;;5095834;28;20491;-81
2023/03/24 00:03:50;;;;;;;6.38;3.00;;;11.70;99.90;;;;;;5096450;28;20048;-81
2023/03/24 00:06:17;;;;;;;6.78;3.15;;;11.00;99.90;;;;;;5095943;28;20507;-80
2023/03/24 00:08:46;;;;;;;;;;;11.00;99.90;;;;;;5097556;28;20058;-80
2023/03/24 00:11:13;;;;;;;7.03;3.33;;;11.30;99.90;;;;;;5095848;28;19919;-80
2023/03/24 00:13:40;;;;;;;7.40;3.03;;;11.00;99.90;;;;;;5097015;28;20055;-80
2023/03/24 00:16:15;;;;;;;8.18;3.03;;;11.30;99.90;;;;;;5097075;28;20484;-81
2023/03/24 00:18:41;;;;;;;10.55;3.13;;;10.90;99.90;;;;;;5095984;28;20373;-81
2023/03/24 00:21:10;;;;;;;6.00;3.03;;;10.90;99.90;;;;;;5096770;28;20040;-81
2023/03/24 00:23:35;;;;;;;7.38;3.17;;;11.00;99.90;;;;;;5095364;28;20307;-81
2023/03/24 00:26:06;;;;;;;9.32;3.50;;;11.00;99.90;;;;;;5095801;28;20048;-81
2023/03/24 00:28:33;;;;;;;5.78;3.03;;;10.90;99.90;;;;;;5095840;28;20134;-81
2023/03/24 00:31:00;;;;;;;9.05;3.33;;;11.00;99.90;;;;;;5096262;28;20538;-81
2023/03/24 00:33:30;;;;;;;8.32;3.28;;;11.60;99.90;;;;;;5096489;28;20118;-81
2023/03/24 00:35:57;;;;;;;7.93;3.58;;;11.00;99.90;;;;;;5096527;28;20091;-81
2023/03/24 00:38:22;;;;;;;7.93;3.15;;;10.90;99.90;;;;;;5096646;28;20105;-81
2023/03/24 00:40:49;;;;;;;7.15;3.42;;;10.90;99.90;;;;;;5097042;28;20458;-81
2023/03/24 00:43:15;;;;;;;7.43;3.20;;;10.90;99.90;;;;;;5096340;28;20097;-81
2023/03/24 00:45:46;;;;;;;6.67;2.97;;;11.20;99.90;;;;;;5095208;28;20051;-81
2023/03/24 00:48:13;;;;;;;9.10;3.50;;;10.90;99.90;;;;;;5096273;28;20802;-80
2023/03/24 00:50:40;;;;;;;8.18;3.92;;;10.90;99.90;;;;;;5096153;28;20086;-81
2023/03/24 00:53:07;;;;;;;4.97;3.05;;;11.10;99.90;;;;;;5095120;28;20123;-81
2023/03/24 00:55:32;;;;;;;4.93;2.88;;;10.90;99.90;;;;;;5095634;28;20052;-81
2023/03/24 00:57:59;;;;;;;9.18;2.92;;;10.90;99.90;;;;;;5096185;28;20044;-81
2023/03/24 01:00:26;;;;;;;6.63;3.13;;;11.00;99.90;;;;;;5095504;28;20051;-81
2023/03/24 01:02:54;;;;;;;6.32;3.05;;;10.90;99.90;;;;;;5095993;28;20079;-81
2023/03/24 01:05:23;;;;;;;6.35;3.35;;;10.90;99.90;;;;;;5095014;28;20048;-81
2023/03/24 01:07:51;;;;;;;9.13;3.33;;;10.90;99.90;;;;;;5096037;28;20043;-81
2023/03/24 01:10:24;;;;;;;8.48;3.08;;;10.90;99.90;;;;;;5095809;28;20062;-81
2023/03/24 01:12:51;;;;;;;5.20;2.92;;;10.90;99.90;;;;;;5095045;28;20040;-80
2023/03/24 01:15:20;;;;;;;6.60;2.78;;;10.90;99.90;;;;;;5094731;28;20396;-81
2023/03/24 01:17:47;;;;;;;8.25;3.47;;;11.50;99.90;;;;;;5094568;28;20054;-81
2023/03/24 01:20:13;;;;;;;6.97;3.13;;;11.00;99.90;;;;;;5095005;28;20044;-81
2023/03/24 01:22:43;;;;;;;5.15;2.78;;;11.30;99.90;;;;;;5095702;28;20054;-81
2023/03/24 01:25:15;;;;;;;7.75;3.13;;;11.00;99.90;;;;;;5095680;28;20568;-80
2023/03/24 01:27:40;;;;;;;6.28;3.35;;;11.00;99.90;;;;;;5094769;28;20079;-80
2023/03/24 01:30:06;;;;;;;8.43;3.25;;;11.00;99.90;;;;;;5095649;28;20091;-80
2023/03/24 01:32:32;;;;;;;6.63;3.40;;;11.00;99.90;;;;;;5095542;28;20055;-80
2023/03/24 01:34:58;;;;;;;5.43;3.10;;;11.10;99.90;;;;;;5095502;28;20044;-81
2023/03/24 01:37:23;;;;;;;8.02;3.10;;;11.10;99.90;;;;;;5095855;28;20079;-81
2023/03/24 01:39:50;;;;;;;6.50;3.17;;;11.10;99.90;;;;;;5061317;28;20392;-80
2023/03/24 01:42:21;;;;;;;6.22;3.17;;;11.10;99.90;;;;;;5095013;28;20543;-81
2023/03/24 01:44:49;;;;;;;7.75;3.40;;;11.10;99.90;;;;;;5095418;28;20174;-81
2023/03/24 01:47:16;;;;;;;7.20;3.55;;;11.10;99.90;;;;;;5094211;28;20389;-81
2023/03/24 01:49:58;;;;;;;9.10;4.05;;;10.80;99.90;;;;;;5094925;28;20086;-81
2023/03/24 01:52:28;;;;;;;7.93;3.80;;;11.10;99.90;;;;;;5095362;28;20040;-81
2023/03/24 01:54:59;;;;;;;7.65;3.60;;;11.60;99.90;;;;;;5077385;28;20418;-81
2023/03/24 01:57:32;;;;;;;7.07;3.85;;;11.30;99.90;;;;;;5095183;28;20043;-81
2023/03/24 02:00:03;;;;;;;6.68;3.60;;;11.10;99.90;;;;;;5077420;28;20079;-81
2023/03/24 02:02:34;;;;;;;7.10;3.42;;;11.10;99.90;;;;;;5095480;28;20554;-81
2023/03/24 02:05:06;;;;;;;8.80;3.70;;;11.10;99.90;;;;;;5077264;28;20052;-81
2023/03/24 02:07:43;;;;;;;6.13;3.65;;;11.10;99.90;;;;;;5077145;28;20044;-81
2023/03/24 02:10:13;;;;;;;9.45;3.95;;;11.10;99.90;;;;;;5093579;28;20579;-81
2023/03/24 02:12:41;;;;;;;7.95;4.10;;;11.20;99.90;;;;;;5077595;28;20044;-81
2023/03/24 02:15:07;;;;;;;7.13;3.75;;;11.20;99.90;;;;;;5093348;28;20403;-80
2023/03/24 02:17:53;;;;;;;6.05;3.72;;;11.20;99.90;;;;;;5076866;28;20131;-80
2023/03/24 02:20:27;;;;;;;9.00;3.47;;;11.20;99.90;;;;;;5094787;28;20113;-81
2023/03/24 02:23:13;;;;;;;8.43;3.58;;;11.20;99.90;;;;;;5093659;28;20051;-80
2023/03/24 02:25:54;;;;;;;6.85;3.47;;;11.20;99.90;;;;;;5094849;28;20063;-80
2023/03/24 02:28:47;;;;;;;5.90;3.50;;;11.20;99.90;;;;;;5094429;28;20051;-80
2023/03/24 02:31:32;;;;;;;6.03;3.70;;;11.20;99.90;;;;;;5093322;28;20145;-80
2023/03/24 02:34:35;;;;;;;6.25;3.78;;;11.30;99.90;;;;;;5094446;28;20048;-80
2023/03/24 02:37:27;;;;;;;6.07;3.25;;;11.30;99.90;;;;;;5094336;28;20050;-81
2023/03/24 02:40:22;;;;;;;6.50;3.78;;;11.30;99.90;;;;;;5094372;28;20130;-81
2023/03/24 02:43:07;;;;;;;7.93;3.90;;;11.30;99.90;;;;;;5093181;28;20043;-80
2023/03/24 02:45:53;;;;;;;6.78;3.78;;;11.30;99.90;;;;;;5094376;28;20043;-80
2023/03/24 02:48:27;;;;;;;6.50;4.65;;;11.30;99.90;;;;;;5094599;28;20048;-79
2023/03/24 02:51:12;;;;;;;7.70;3.72;;;11.30;99.90;;;;;;5093958;28;20044;-80
2023/03/24 02:54:04;;;;;;;8.45;3.67;;;11.40;99.90;;;;;;5094123;28;20043;-81
2023/03/24 02:56:54;;;;;;;8.35;4.10;;;11.40;99.90;;;;;;5076142;28;20077;-81
2023/03/24 02:59:39;;;;;;;8.18;3.50;;;11.40;99.90;;;;;;5093387;28;20051;-81
2023/03/24 03:02:30;;;;;;;5.40;3.55;;;11.40;99.90;;;;;;5093999;28;20043;-81
2023/03/24 03:05:04;;;;;;;5.18;3.38;;;11.40;99.90;;;;;;5093697;28;20442;-82
2023/03/24 03:07:36;;;;;;;8.93;3.60;;;11.40;99.90;;;;;;5096309;28;20055;-81
2023/03/24 03:10:06;;;;;;;5.55;3.47;;;11.40;99.90;;;;;;5100254;28;20044;-81
2023/03/24 03:12:35;;;;;;;7.07;3.53;;;11.80;99.90;;;;;;5098494;28;20489;-81
2023/03/24 03:15:33;;;;;;;6.28;3.63;;;11.40;99.90;;;;;;5093687;28;20043;-81
2023/03/24 03:18:07;;;;;;;4.88;3.30;;;11.60;99.90;;;;;;5073807;28;20063;-81
2023/03/24 03:20:41;;;;;;;5.28;3.47;;;11.40;99.90;;;;;;5076683;28;20055;-81
2023/03/24 03:23:12;;;;;;;5.38;3.53;;;11.40;99.90;;;;;;5093736;28;20048;-81
2023/03/24 03:25:45;;;;;;;6.45;3.22;;;11.40;99.90;;;;;;5093691;28;20123;-81
2023/03/24 03:28:13;;;;;;;4.07;3.10;;;12.10;99.90;;;;;;5093645;28;20059;-80
2023/03/24 03:30:45;;;;;;;4.50;3.38;;;11.40;99.90;;;;;;5093284;28;20420;-81
2023/03/24 03:33:23;;;;;;;4.18;3.10;;;11.50;99.90;;;;;;5093499;28;20040;-81
2023/03/24 03:36:03;;;;;;;4.65;3.45;;;11.80;99.90;;;;;;5093510;28;20082;-81
2023/03/24 03:38:55;;;;;;;6.03;3.72;;;11.40;99.90;;;;;;5094065;28;20108;-81
2023/03/24 03:41:21;;;;;;;5.45;3.40;;;11.50;99.90;;;;;;5092620;28;20040;-82
2023/03/24 03:43:48;;;;;;;6.70;3.43;;;11.50;99.90;;;;;;5093521;28;20088;-81
2023/03/24 03:46:15;;;;;;;;;;;11.80;99.90;;;;;;5076144;28;20278;-80
2023/03/24 03:48:41;;;;;;;5.20;3.20;;;11.50;99.90;;;;;;5093743;28;20056;-80
2023/03/24 03:51:08;;;;;;;6.05;3.50;;;11.50;99.90;;;;;;5093438;28;20052;-81
2023/03/24 03:53:49;;;;;;;7.72;3.72;;;11.90;99.90;;;;;;5092507;28;20074;-81
2023/03/24 03:56:18;;;;;;;5.95;3.67;;;11.50;99.90;;;;;;5093406;28;20044;-81
2023/03/24 03:58:46;;;;;;;4.70;3.45;;;12.50;99.90;;;;;;5093324;28;20040;-81
2023/03/24 04:01:18;;;;;;;4.30;3.13;;;11.50;99.90;;;;;;5093279;28;20044;-81
2023/03/24 04:04:08;;;;;;;5.63;3.05;;;11.50;99.90;;;;;;5093979;28;20148;-81
2023/03/24 04:06:59;;;;;;;4.00;2.63;;;11.60;99.90;;;;;;5075737;28;20047;-81
2023/03/24 04:09:43;;;;;;;4.00;2.22;;;11.60;99.90;;;;;;5092226;28;20075;-81
2023/03/24 04:12:34;;;;;;;4.50;2.63;;;11.60;99.90;;;;;;5093074;28;20056;-82
2023/03/24 04:15:15;;;;;;;3.78;2.40;;;11.60;99.90;;;;;;5091883;28;20048;-81
2023/03/24 04:18:08;;;;;;;5.40;1.90;;;11.60;99.90;;;;;;5094560;28;20040;-81
2023/03/24 04:20:52;;;;;;;4.38;1.98;;;12.00;99.90;;;;;;5097503;28;20098;-81
2023/03/24 04:23:38;;;;;;;2.45;1.88;;;11.40;99.90;;;;;;5095790;28;20044;-81
2023/03/24 04:26:33;;;;;;;5.70;2.20;;;11.40;99.90;;;;;;5096805;28;20079;-80
2023/03/24 04:29:01;;;;;;;8.10;2.20;;;11.30;99.90;;;;;;5096000;28;20549;-81
2023/03/24 04:32:23;;;;;;;4.43;2.28;;;11.20;99.90;;;;;;5096454;28;20040;-81
2023/03/24 04:35:00;;;;;;;5.53;2.20;;;11.10;99.90;;;;;;5004244;28;20449;-82
2023/03/24 04:37:31;;;;;;;4.47;2.20;;;11.00;99.90;;;;;;5096908;28;20051;-81
2023/03/24 04:39:59;;;;;;;6.40;2.15;;;10.90;99.90;;;;;;5095728;28;20040;-81
2023/03/24 04:42:31;;;;;;;4.60;1.70;;;10.80;99.90;;;;;;5096529;28;20043;-81
2023/03/24 04:44:58;;;;;;;5.53;2.10;;;10.70;99.90;;;;;;5095445;28;20605;-81
2023/03/24 04:47:27;;;;;;;5.68;1.67;;;10.60;99.90;;;;;;5095613;28;20134;-81
2023/03/24 04:50:08;;;;;;;5.68;1.65;;;10.60;99.90;;;;;;5096647;28;20060;-81
2023/03/24 04:52:33;;;;;;;7.75;1.50;;;10.50;99.90;;;;;;5096342;28;20048;-81
2023/03/24 04:55:00;;;;;;;5.93;1.63;;;10.50;99.90;;;;;;5095436;28;20157;-81
2023/03/24 04:57:26;;;;;;;5.90;2.13;;;10.50;99.90;;;;;;5095299;28;20051;-81
2023/03/24 04:59:52;;;;;;;5.25;1.70;;;10.30;99.90;;;;;;5096219;28;20044;-81
2023/03/24 05:02:18;;;;;;;7.63;1.77;;;10.30;99.90;;;;;;5096177;28;20376;-81
2023/03/24 05:04:43;;;;;;;6.18;1.90;;;10.20;99.90;;;;;;5096130;28;20050;-81
2023/03/24 05:07:10;;;;;;;7.78;1.65;;;11.10;99.90;;;;;;5094863;28;20093;-80
2023/03/24 05:09:35;;;;;;;6.97;1.83;;;10.20;99.90;;;;;;5095101;28;20040;-81
2023/03/24 05:12:01;;;;;;;4.75;2.00;;;10.20;99.90;;;;;;5094678;28;20092;-80
2023/03/24 05:14:27;;;;;;;3.30;1.45;;;10.20;99.90;;;;;;5096560;28;20055;-81
2023/03/24 05:16:52;;;;;;;5.32;1.83;;;10.10;99.90;;;;;;5096216;28;20487;-81
2023/03/24 05:19:18;;;;;;;5.45;1.63;;;10.60;99.90;;;;;;5094702;28;20181;-81
2023/03/24 05:21:43;;;;;;;10.13;2.40;;;10.10;99.90;;;;;;5095793;28;20119;-81
2023/03/24 05:24:09;;;;;;;6.75;2.75;;;10.10;99.90;;;;;;5077845;28;20155;-81
2023/03/24 05:26:35;;;;;;;7.72;1.75;;;10.10;99.90;;;;;;5095392;28;20043;-81
2023/03/24 05:29:00;;;;;;;8.40;2.10;;;10.10;99.90;;;;;;5094337;28;20044;-81
2023/03/24 05:31:26;;;;;;;6.85;2.22;;;10.10;99.90;;;;;;5095516;28;20044;-81
2023/03/24 05:33:52;;;;;;;9.45;2.17;;;10.30;99.90;;;;;;5094996;28;20051;-81
2023/03/24 05:36:17;;;;;;;8.43;2.60;;;10.10;99.90;;;;;;5095539;28;20050;-81
2023/03/24 05:38:43;;;;;;;10.25;2.28;;;10.10;99.90;;;;;;5094404;28;20047;-81
2023/03/24 05:41:08;;;;;;;9.55;2.08;;;10.10;99.90;;;;;;5093948;28;20414;-81
2023/03/24 05:43:34;;;;;;;8.40;2.15;;;10.00;99.90;;;;;;5094636;28;20391;-81
2023/03/24 05:46:00;;;;;;;5.43;1.90;;;10.70;99.90;;;;;;5095143;28;20089;-81
2023/03/24 05:48:26;;;;;;;4.63;2.00;;;10.00;99.90;;;;;;5093645;28;20048;-82
2023/03/24 05:50:52;;;;;;;8.80;2.17;;;9.90;99.90;;;;;;5095060;28;20048;-82
2023/03/24 05:53:18;;;;;;;8.73;3.05;;;10.30;99.90;;;;;;5095086;28;20055;-82
2023/03/24 05:55:45;;;;;;;5.13;1.83;;;9.90;99.90;;;;;;5095161;28;20387;-82
2023/03/24 05:58:10;;;;;;;13.27;2.38;;;9.80;99.90;;;;;;5095487;28;20415;-81
2023/03/24 06:00:37;;;;;;;8.48;2.20;;;10.10;99.90;;;;;;5094123;28;20093;-81
2023/03/24 06:03:03;;;;;;;6.82;2.20;;;10.00;99.90;;;;;;5093776;28;20066;-82
2023/03/24 06:05:30;;;;;;;8.88;2.22;;;10.10;99.90;;;;;;5094994;28;20052;-82
2023/03/24 06:08:00;;;;;;;8.43;2.10;;;9.90;99.90;;;;;;5094865;28;20051;-82
2023/03/24 06:10:28;;;;;;;5.45;2.00;;;9.70;99.90;;;;;;5094627;28;20055;-82
2023/03/24 06:12:54;;;;;;;10.38;2.00;;;9.70;99.90;;;;;;5094529;28;20431;-83
2023/03/24 06:15:21;;;;;;;10.63;2.20;;;9.70;99.90;;;;;;5093590;28;20048;-82
2023/03/24 06:17:47;;;;;;;;;;;9.70;99.90;;;;;;5077268;28;20048;-86
2023/03/24 06:20:14;;;;;;;8.32;2.17;;;9.70;99.90;;;;;;5093741;28;20252;-85
2023/03/24 06:22:43;;;;;;;7.47;1.80;;;9.70;99.90;;;;;;5093538;28;20036;-85
2023/03/24 06:25:09;;;;;;;9.18;1.70;;;9.70;99.90;;;;;;5093471;28;20055;-85
2023/03/24 06:27:35;;;;;;;6.82;1.90;;;9.70;99.90;;;;;;5076716;28;20086;-83
2023/03/24 06:30:01;;;;;;;8.05;1.95;;;9.60;99.90;;;;;;5094550;28;20044;-83
2023/03/24 06:32:27;;;;;;;9.35;1.85;;;9.60;99.90;;;;;;5094654;28;20043;-84
2023/03/24 06:34:53;;;;;;;3.88;1.83;;;9.80;99.90;;;;;;5093268;28;20082;-85
2023/03/24 06:37:23;;;;;;;12.23;1.90;;;9.70;99.90;;;;;;5093378;28;20138;-83
2023/03/24 06:39:48;;;;;;;10.27;2.55;;;9.70;99.90;;;;;;5093576;28;20086;-84
2023/03/24 06:42:14;;;;;;;10.43;2.40;;;9.70;99.90;;;;;;5093696;28;20044;-82
2023/03/24 06:44:40;;;;;;;8.80;2.37;;;9.80;99.90;;;;;;5095121;28;20071;-85
2023/03/24 06:47:06;;;;;;;6.25;1.83;;;9.80;99.90;;;;;;5094630;28;20039;-82
2023/03/24 06:49:33;;;;;;;9.80;1.88;;;9.80;99.90;;;;;;5094492;28;20048;-83
2023/03/24 06:52:02;;;;;;;6.55;1.90;;;9.90;99.90;;;;;;5092707;28;20104;-82
2023/03/24 06:54:28;;;;;;;7.57;2.28;;;9.90;99.90;;;;;;5093973;28;20048;-81
2023/03/24 06:56:53;;;;;;;6.07;2.13;;;9.90;99.90;;;;;;5092874;28;20051;-80
2023/03/24 06:59:22;;;;;;;9.73;2.08;;;10.00;99.90;;;;;;5076426;28;20046;-82
2023/03/24 07:01:52;;;;;;;9.88;2.35;;;9.90;99.90;;;;;;5076616;28;20157;-82
2023/03/24 07:04:18;;;;;;;5.32;2.10;;;10.00;99.90;;;;;;5092688;28;20051;-79
2023/03/24 07:06:44;;;;;;;6.18;2.15;;;10.60;99.90;;;;;;5092780;28;20125;-82
2023/03/24 07:09:11;;;;;;;8.30;2.43;;;10.20;99.90;;;;;;5092491;28;20468;-82
2023/03/24 07:11:37;;;;;;;8.65;2.58;;;10.20;99.90;;;;;;5092593;28;20043;-80
2023/03/24 07:14:03;;;;;;;16.45;2.65;;;10.30;99.90;;;;;;5093817;28;20052;-77
2023/03/24 07:16:29;;;;;;;13.65;2.47;;;10.50;99.90;;;;;;5093740;28;20044;-78
2023/03/24 07:18:55;;;;;;;10.80;1.95;;;10.30;99.90;;;;;;5094109;28;20043;-78
2023/03/24 07:21:20;;;;;;;4.32;2.10;;;10.80;99.90;;;;;;5093609;28;20472;-77
2023/03/24 07:23:46;;;;;;;9.88;2.58;;;10.40;99.90;;;;;;5093487;28;20044;-79
2023/03/24 07:26:11;;;;;;;10.52;2.28;;;11.10;99.90;;;;;;5093695;28;20048;-77
2023/03/24 07:28:37;;;;;;;8.95;2.50;;;10.60;99.90;;;;;;5093715;28;20463;-78
2023/03/24 07:31:05;;;;;;;11.68;2.10;;;10.40;99.90;;;;;;5093553;28;20048;-79
2023/03/24 07:33:31;;;;;;;9.65;2.20;;;10.40;99.90;;;;;;5093500;28;20044;-79
2023/03/24 07:35:58;;;;;;;8.10;2.17;;;10.40;99.90;;;;;;5093537;28;20040;-78
2023/03/24 07:38:25;;;;;;;10.50;2.50;;;10.50;99.90;;;;;;5093467;28;20376;-77
2023/03/24 07:40:50;;;;;;;10.45;2.00;;;10.50;99.90;;;;;;5093542;28;20044;-79
2023/03/24 07:43:16;;;;;;;9.60;2.42;;;10.60;99.90;;;;;;5093071;28;20431;-76
2023/03/24 07:45:44;;;;;;;6.93;1.90;;;10.60;99.90;;;;;;5093607;28;20043;-76
2023/03/24 07:48:13;;;;;;;12.25;2.75;;;10.60;99.90;;;;;;5093162;28;20048;-79
2023/03/24 07:50:39;;;;;;;13.80;2.72;;;10.60;99.90;;;;;;5093527;28;20494;-80
2023/03/24 07:53:08;;;;;;;15.93;2.60;;;10.70;99.90;;;;;;5096855;28;20044;-78
2023/03/24 07:55:37;;;;;;;11.02;2.42;;;10.80;99.90;;;;;;5097351;28;20373;-79
2023/03/24 07:58:03;;;;;;;13.35;2.38;;;10.80;99.90;;;;;;5096344;28;20101;-78
2023/03/24 08:00:31;;;;;;;8.00;2.03;;;10.80;99.90;;;;;;5096896;28;20044;-78
2023/03/24 08:02:57;;;;;;;12.40;3.15;;;11.10;99.90;;;;;;5096263;28;20535;-80
2023/03/24 08:05:23;;;;;;;10.48;3.00;;;10.80;99.90;;;;;;5096109;28;20128;-79
2023/03/24 08:07:54;;;;;;;8.75;2.15;;;10.80;99.90;;;;;;5097516;28;20480;-79
2023/03/24 08:10:38;;;;;;;14.68;2.83;;;10.80;99.90;;;;;;5095863;28;20106;-79
2023/03/24 08:13:03;;;;;;;11.63;2.85;;;10.80;99.90;;;;;;5096519;28;20047;-79
2023/03/24 08:15:29;;;;;;;12.13;2.47;;;11.00;99.90;;;;;;5096767;28;20044;-79
2023/03/24 08:17:55;;;;;;;10.82;2.90;;;10.90;99.90;;;;;;5096542;28;20052;-79
2023/03/24 08:20:23;;;;;;;11.13;2.67;;;10.80;99.90;;;;;;5096331;28;20083;-79
2023/03/24 08:22:49;;;;;;;12.55;2.40;;;11.30;99.90;;;;;;5096824;28;20403;-79
2023/03/24 08:25:17;;;;;;;16.88;2.80;;;12.00;99.90;;;;;;5095550;28;20090;-79
2023/03/24 08:27:43;;;;;;;11.02;2.47;;;11.60;99.90;;;;;;5096641;28;20036;-79
2023/03/24 08:30:12;;;;;;;15.85;3.97;;;11.60;99.90;;;;;;5096495;28;20048;-79
2023/03/24 08:33:03;;;;;;;9.45;2.60;;;11.70;99.90;;;;;;5095903;28;20044;-79
2023/03/24 08:35:33;;;;;;;14.90;3.45;;;12.10;99.90;;;;;;5096011;28;20085;-78
2023/03/24 08:38:00;;;;;;;14.32;3.30;;;11.70;99.90;;;;;;5096344;28;20047;-79
2023/03/24 08:40:27;;;;;;;10.35;3.00;;;11.70;99.90;;;;;;5096476;28;20040;-79
2023/03/24 08:42:56;;;;;;;13.23;2.85;;;11.70;99.90;;;;;;5095110;28;20087;-79
2023/03/24 08:45:23;;;;;;;15.10;2.75;;;11.80;99.90;;;;;;5095918;28;20507;-79
2023/03/24 08:47:51;;;;;;;13.98;3.08;;;11.80;99.90;;;;;;5096261;28;20040;-80
2023/03/24 08:50:22;;;;;;;10.43;2.60;;;11.90;99.90;;;;;;5096393;28;20052;-79
2023/03/24 08:52:48;;;;;;;11.55;3.05;;;11.80;99.90;;;;;;5096158;28;20040;-79
2023/03/24 08:55:19;;;;;;;12.65;3.38;;;11.70;99.90;;;;;;5095058;28;20096;-79
2023/03/24 08:57:45;;;;;;;12.70;2.58;;;12.10;99.90;;;;;;5095988;28;20120;-79
2023/03/24 09:00:14;;;;;;;15.60;2.70;;;11.50;99.90;;;;;;5095852;28;20048;-79
2023/03/24 09:02:45;;;;;;;11.52;2.95;;;11.50;99.90;;;;;;5095082;28;20048;-80
2023/03/24 09:05:14;;;;;;;9.90;3.05;;;11.70;99.90;;;;;;5095501;28;20097;-80
2023/03/24 09:07:40;;;;;;;10.95;3.38;;;11.30;99.90;;;;;;5095789;28;20051;-80
2023/03/24 09:10:08;;;;;;;6.95;2.47;;;11.60;99.90;;;;;;5095635;28;20036;-79
2023/03/24 09:12:35;;;;;;;13.00;2.97;;;11.60;99.90;;;;;;5095052;28;20040;-79
2023/03/24 09:15:01;;;;;;;10.43;2.70;;;11.70;99.90;;;;;;5095812;28;20083;-78
2023/03/24 09:17:27;;;;;;;18.53;2.80;;;12.00;99.90;;;;;;5095763;28;20464;-79
2023/03/24 09:19:52;;;;;;;11.05;2.45;;;12.20;99.90;;;;;;5095524;28;20080;-79
2023/03/24 09:22:18;;;;;;;12.60;2.35;;;12.50;99.90;;;;;;5095628;28;20075;-79
2023/03/24 09:24:44;;;;;;;12.00;3.15;;;12.70;99.90;;;;;;5095218;28;20434;-79
2023/03/24 09:27:10;;;;;;;11.43;2.40;;;12.90;99.90;;;;;;5095323;28;20040;-82
2023/03/24 09:29:35;;;;;;;15.57;2.50;;;12.90;99.90;;;;;;5095174;28;20067;-78
2023/03/24 09:32:01;;;;;;;14.88;2.67;;;13.00;99.90;;;;;;5095069;28;20044;-78
2023/03/24 09:34:27;;;;;;;10.73;2.37;;;13.00;99.90;;;;;;5095222;28;20040;-80
2023/03/24 09:36:52;;;;;;;11.02;2.67;;;13.10;99.90;;;;;;5093858;28;20063;-84
2023/03/24 09:39:18;;;;;;;13.43;2.50;;;13.20;99.90;;;;;;5093894;28;20038;-78
2023/03/24 09:41:44;;;;;;;15.63;3.08;;;13.20;99.90;;;;;;5094975;28;20368;-79
2023/03/24 09:44:28;;;;;;;12.43;2.20;;;13.30;99.90;;;;;;5095227;28;20044;-77
2023/03/24 09:47:04;;;;;;;11.38;2.38;;;13.40;99.90;;;;;;5094978;28;20559;-78
2023/03/24 09:49:36;;;;;;;7.40;2.78;;;13.40;99.90;;;;;;5095180;28;20063;-78
2023/03/24 09:52:05;;;;;;;9.73;2.63;;;13.50;99.90;;;;;;5095051;28;20047;-78
2023/03/24 09:54:47;;;;;;;8.98;2.03;;;13.50;99.90;;;;;;5094941;28;20391;-77
2023/03/24 09:57:31;;;;;;;10.43;2.17;;;13.60;99.90;;;;;;5095084;28;20044;-78
2023/03/24 09:59:57;;;;;;;9.60;2.38;;;13.70;99.90;;;;;;5095124;28;20468;-78
2023/03/24 10:02:22;;;;;;;9.47;2.13;;;13.80;99.90;;;;;;5094625;28;20040;-78
2023/03/24 10:04:48;;;;;;;12.47;2.17;;;14.00;99.90;;;;;;5094647;28;20596;-77
2023/03/24 10:07:34;;;;;;;7.60;1.80;;;13.90;99.90;;;;;;5094792;28;20048;-77
2023/03/24 10:10:00;;;;;;;10.95;2.22;;;13.80;99.90;;;;;;5094717;28;20102;-77
2023/03/24 10:12:33;;;;;;;10.00;1.73;;;13.60;99.90;;;;;;5094561;28;20040;-78
2023/03/24 10:15:43;;;;;;;15.57;2.00;;;13.50;99.90;;;;;;5094060;28;20075;-78
2023/03/24 10:18:12;;;;;;;9.63;1.90;;;13.50;99.90;;;;;;5076546;28;20095;-79
2023/03/24 10:20:50;;;;;;;4.18;1.60;;;13.50;99.90;;;;;;5094450;28;20055;-77
2023/03/24 10:23:44;;;;;;;7.35;2.17;;;13.40;99.90;;;;;;5094576;28;20052;-78
2023/03/24 10:26:25;;;;;;;13.13;2.10;;;13.40;99.90;;;;;;5094233;28;20040;-78
2023/03/24 10:29:03;;;;;;;7.88;2.00;;;13.40;99.90;;;;;;5094504;28;20093;-77
2023/03/24 10:31:33;;;;;;;8.52;2.13;;;13.30;99.90;;;;;;5094289;28;20089;-77
2023/03/24 10:33:59;;;;;;;7.32;1.85;;;13.30;99.90;;;;;;5093878;28;20086;-76
2023/03/24 10:36:26;;;;;;;13.27;3.58;;;13.50;99.90;;;;;;5094268;28;20036;-77
2023/03/24 10:38:52;;;;;;;8.00;2.10;;;13.50;99.90;;;;;;5094108;28;20081;-77
2023/03/24 10:41:21;;;;;;;12.13;2.25;;;13.80;99.90;;;;;;5094076;28;20032;-78
2023/03/24 10:43:48;;;;;;;8.75;1.77;;;14.00;99.90;;;;;;5094166;28;20040;-77
2023/03/24 10:46:36;;;;;;;10.52;2.08;;;14.00;99.90;;;;;;5094000;28;20044;-77
2023/03/24 10:49:13;;;;;;;7.82;1.73;;;14.10;99.90;;;;;;5093569;28;20044;-77
2023/03/24 10:51:45;;;;;;;10.90;2.00;;;14.40;99.90;;;;;;5093967;28;20145;-75
2023/03/24 10:54:19;;;;;;;8.60;1.95;;;14.50;99.90;;;;;;5093753;28;20048;-76
2023/03/24 10:56:50;;;;;;;8.55;1.92;;;14.50;99.90;;;;;;5093536;28;20051;-78
2023/03/24 10:59:30;;;;;;;5.55;1.67;;;14.60;99.90;;;;;;5093357;28;20143;-76
2023/03/24 11:02:08;;;;;;;9.25;1.70;;;14.80;99.90;;;;;;5093517;28;20411;-76
2023/03/24 11:04:38;;;;;;;12.38;2.40;;;14.80;99.90;;;;;;5093770;28;20150;-77
2023/03/24 11:07:08;;;;;;;13.98;2.35;;;14.90;99.90;;;;;;5093661;28;20130;-77
2023/03/24 11:09:45;;;;;;;12.05;1.90;;;15.00;99.90;;;;;;5093042;28;20051;-78
2023/03/24 11:12:22;;;;;;;;;;;15.00;99.90;;;;;;5092972;28;20048;-80
2023/03/24 11:14:48;;;;;;;5.55;1.60;;;15.00;99.90;;;;;;5065577;28;20371;-81
2023/03/24 11:17:15;;;;;;;7.97;1.87;;;14.90;99.90;;;;;;5073475;28;20043;-78
2023/03/24 11:19:51;;;;;;;10.38;2.13;;;15.00;99.90;;;;;;5073408;28;20075;-79
2023/03/24 11:22:17;;;;;;;8.85;2.22;;;14.90;99.90;;;;;;5074578;28;20048;-78
2023/03/24 11:24:46;;;;;;;13.77;1.83;;;14.90;99.90;;;;;;5074383;28;20056;-81
2023/03/24 11:27:15;;;;;;;7.85;1.75;;;14.80;99.90;;;;;;5073340;28;20115;-78
2023/03/24 11:29:42;;;;;;;4.60;1.83;;;14.80;99.90;;;;;;5090082;28;20052;-79
2023/03/24 11:32:13;;;;;;;9.52;2.55;;;14.50;99.90;;;;;;5072988;28;20045;-78
2023/03/24 11:34:45;;;;;;;9.15;2.20;;;14.40;99.90;;;;;;5082505;28;20122;-80
2023/03/24 11:37:17;;;;;;;7.45;1.75;;;14.40;99.90;;;;;;5075678;28;20519;-80
2023/03/24 11:39:43;;;;;;;7.90;2.10;;;14.60;99.90;;;;;;5075471;28;20466;-82
2023/03/24 11:42:16;;;;;;;6.83;1.97;;;14.60;99.90;;;;;;5088656;28;20123;-79
2023/03/24 11:44:47;;;;;;;7.05;1.95;;;14.70;99.90;;;;;;5089523;28;20047;-76
2023/03/24 11:47:32;;;;;;;12.15;2.00;;;14.60;99.90;;;;;;5092945;28;20127;-77
2023/03/24 11:50:09;;;;;;;6.95;2.47;;;14.70;99.90;;;;;;5092759;28;20044;-77
2023/03/24 11:52:54;;;;;;;9.50;3.00;;;14.90;99.90;;;;;;5093365;28;20067;-78
2023/03/24 11:55:42;;;;;;;6.90;2.25;;;15.00;99.90;;;;;;5092902;28;20044;-77
2023/03/24 11:58:29;;;;;;;11.82;2.33;;;15.00;99.90;;;;;;5093521;28;20051;-77
2023/03/24 12:01:20;;;;;;;9.88;2.35;;;15.10;99.90;;;;;;5092271;28;20400;-77
2023/03/24 12:04:16;;;;;;;12.73;2.60;;;15.10;99.90;;;;;;5083359;28;20059;-78
2023/03/24 12:06:51;;;;;;;9.75;2.35;;;15.10;99.90;;;;;;5092671;28;20098;-78
2023/03/24 12:09:50;;;;;;;8.52;2.47;;;15.10;99.90;;;;;;5092927;28;20051;-78
2023/03/24 12:12:29;;;;;;;10.15;2.05;;;15.20;99.90;;;;;;5092927;28;20086;-78
2023/03/24 12:15:30;;;;;;;11.88;2.13;;;15.00;99.90;;;;;;5093011;28;20047;-78
2023/03/24 12:18:33;;;;;;;8.25;2.00;;;14.90;99.90;;;;;;5091877;28;20048;-78
2023/03/24 12:21:12;;;;;;;12.77;2.72;;;14.90;99.90;;;;;;5093007;28;20044;-78
2023/03/24 12:23:57;;;;;;;8.27;2.45;;;15.10;99.90;;;;;;5092834;28;20488;-78
2023/03/24 12:26:27;;;;;;;11.15;2.65;;;15.20;99.90;;;;;;5092958;28;20048;-77
2023/03/24 12:29:12;;;;;;;9.68;2.13;;;15.50;99.90;;;;;;5092413;28;20102;-77
2023/03/24 12:32:08;;;;;;;11.38;2.00;;;15.60;99.90;;;;;;5092637;28;20545;-79
2023/03/24 12:35:06;;;;;;;9.50;2.25;;;15.50;99.90;;;;;;5093115;28;20085;-80
2023/03/24 12:38:20;;;;;;;5.18;1.80;;;15.50;99.90;;;;;;5093820;28;20048;-82
2023/03/24 12:41:12;;;;;;;10.98;2.03;;;15.60;99.90;;;;;;5091217;28;20055;-79
2023/03/24 12:43:40;;;;;;;7.68;1.98;;;15.70;99.90;;;;;;5096853;28;20044;-81
2023/03/24 12:46:27;;;;;;;9.05;1.83;;;15.60;99.90;;;;;;5095622;28;20120;-80
2023/03/24 12:49:03;;;;;;;9.38;1.77;;;15.60;99.90;;;;;;5094881;28;20051;-80
2023/03/24 12:51:32;;;;;;;4.97;1.63;;;15.40;99.90;;;;;;5095687;28;20778;-80
2023/03/24 12:54:26;;;;;;;6.75;1.83;;;15.70;99.90;;;;;;5095393;28;20044;-79
2023/03/24 12:57:06;;;;;;;9.95;1.90;;;15.30;99.90;;;;;;5094649;28;20471;-80
2023/03/24 12:59:58;;;;;;;7.40;1.67;;;15.30;99.90;;;;;;5096063;28;20040;-80
2023/03/24 13:02:36;;;;;;;5.50;1.92;;;15.40;99.90;;;;;;5096148;28;20047;-80
2023/03/24 13:05:07;;;;;;;6.50;1.90;;;15.70;99.90;;;;;;5094954;28;20085;-80
2023/03/24 13:07:42;;;;;;;6.43;2.10;;;15.60;99.90;;;;;;5096196;28;20376;-80
2023/03/24 13:10:20;;;;;;;7.32;2.00;;;15.30;99.90;;;;;;5095970;28;20105;-80
2023/03/24 13:13:05;;;;;;;10.30;2.20;;;15.10;99.90;;;;;;5096090;28;20090;-80